createdAt,value
2023-04-20T00:00:45.378Z,8.00
2023-04-20T00:01:45.388Z,8.80
2023-04-20T00:02:45.475Z,7.50
2023-04-20T00:03:45.544Z,7.00
2023-04-20T00:04:45.330Z,7.40
2023-04-20T00:05:45.327Z,7.90
2023-04-20T00:06:45.384Z,8.00
2023-04-20T00:07:45.370Z,7.60
2023-04-20T00:08:45.296Z,8.70
2023-04-20T00:09:45.319Z,7.00
2023-04-20T00:10:45.338Z,7.30
2023-04-20T00:11:45.313Z,7.50
2023-04-20T00:12:45.266Z,8.00
2023-04-20T00:13:45.252Z,8.10
2023-04-20T00:14:45.261Z,9.20
2023-04-20T00:15:46.251Z,8.10
2023-04-20T00:16:45.290Z,8.00
2023-04-20T00:17:45.266Z,7.50
2023-04-20T00:18:45.284Z,8.40
2023-04-20T00:19:45.218Z,9.00
2023-04-20T00:20:45.226Z,8.70
2023-04-20T00:21:45.250Z,9.00
2023-04-20T00:22:45.214Z,9.60
2023-04-20T00:23:45.185Z,8.50
2023-04-20T00:24:45.232Z,8.50
2023-04-20T00:25:45.226Z,8.90
2023-04-20T00:26:45.237Z,8.00
2023-04-20T00:27:45.170Z,8.60
2023-04-20T00:28:45.206Z,8.00
2023-04-20T00:29:45.168Z,7.80
2023-04-20T00:30:45.251Z,8.60
2023-04-20T00:31:45.136Z,9.50
2023-04-20T00:32:45.209Z,8.60
2023-04-20T00:33:45.220Z,9.20
2023-04-20T00:34:45.133Z,8.30
2023-04-20T00:35:45.117Z,9.40
2023-04-20T00:36:45.127Z,9.50
2023-04-20T00:37:45.087Z,8.80
2023-04-20T00:38:45.098Z,8.40
2023-04-20T00:39:45.108Z,8.80
2023-04-20T00:40:45.071Z,8.20
2023-04-20T00:41:45.070Z,8.90
2023-04-20T00:42:45.133Z,8.40
2023-04-20T00:43:45.040Z,8.70
2023-04-20T00:44:45.069Z,9.00
2023-04-20T00:45:45.084Z,9.50
2023-04-20T00:46:45.443Z,8.90
2023-04-20T00:47:45.068Z,9.40
2023-04-20T00:48:45.047Z,9.30
2023-04-20T00:49:45.010Z,9.10
2023-04-20T00:50:45.066Z,8.20
2023-04-20T00:51:45.037Z,8.90
2023-04-20T00:52:45.116Z,8.50
2023-04-20T00:53:44.980Z,8.70
2023-04-20T00:54:45.021Z,8.40
2023-04-20T00:55:44.998Z,10.00
2023-04-20T00:56:44.984Z,9.40
2023-04-20T00:57:45.018Z,8.40
2023-04-20T00:58:44.997Z,8.50
2023-04-20T00:59:44.989Z,9.70
2023-04-20T01:00:44.984Z,9.00
2023-04-20T01:01:44.989Z,9.10
2023-04-20T01:02:45.077Z,9.90
2023-04-20T01:03:45.232Z,9.90
2023-04-20T01:04:44.942Z,9.50
2023-04-20T01:05:44.974Z,8.60
2023-04-20T01:06:44.961Z,8.80
2023-04-20T01:07:44.926Z,8.10
2023-04-20T01:08:44.963Z,8.60
2023-04-20T01:09:44.959Z,9.00
2023-04-20T01:10:44.965Z,8.30
2023-04-20T01:11:44.991Z,9.00
2023-04-20T01:12:44.968Z,8.70
2023-04-20T01:13:44.998Z,8.70
2023-04-20T01:14:44.873Z,9.00
2023-04-20T01:15:44.989Z,8.20
2023-04-20T01:16:45.038Z,8.80
2023-04-20T01:17:44.874Z,9.00
2023-04-20T01:18:44.923Z,8.60
2023-04-20T01:19:44.847Z,8.70
2023-04-20T01:20:44.822Z,8.80
2023-04-20T01:21:44.838Z,9.10
2023-04-20T01:22:44.932Z,8.60
2023-04-20T01:23:44.812Z,8.10
2023-04-20T01:24:45.019Z,8.90
2023-04-20T01:25:44.793Z,8.00
2023-04-20T01:26:44.808Z,9.00
2023-04-20T01:27:44.823Z,9.20
2023-04-20T01:28:44.775Z,8.00
2023-04-20T01:29:44.762Z,8.50
2023-04-20T01:30:44.818Z,8.20
2023-04-20T01:31:44.849Z,9.30
2023-04-20T01:32:44.884Z,8.70
2023-04-20T01:33:44.810Z,8.00
2023-04-20T01:34:44.822Z,8.50
2023-04-20T01:35:44.812Z,8.60
2023-04-20T01:36:44.800Z,8.20
2023-04-20T01:37:44.707Z,8.10
2023-04-20T01:38:44.737Z,8.30
2023-04-20T01:39:44.850Z,9.00
2023-04-20T01:40:44.785Z,8.50
2023-04-20T01:41:44.668Z,8.90
2023-04-20T01:42:44.682Z,8.80
2023-04-20T01:43:44.703Z,8.60
2023-04-20T01:44:44.655Z,9.50
2023-04-20T01:45:44.669Z,9.30
2023-04-20T01:46:44.703Z,8.60
2023-04-20T01:47:44.742Z,9.00
2023-04-20T01:48:44.659Z,9.50
2023-04-20T01:49:44.658Z,9.00
2023-04-20T01:50:44.652Z,9.00
2023-04-20T01:51:44.642Z,8.30
2023-04-20T01:52:44.629Z,8.90
2023-04-20T01:53:44.617Z,9.20
2023-04-20T01:54:44.614Z,9.50
2023-04-20T01:55:44.651Z,8.90
2023-04-20T01:56:44.620Z,9.30
2023-04-20T01:57:44.582Z,9.10
2023-04-20T01:58:44.613Z,9.70
2023-04-20T01:59:44.573Z,10.10
2023-04-20T02:00:44.644Z,9.10
2023-04-20T02:01:44.650Z,10.20
2023-04-20T02:02:44.772Z,8.70
2023-04-20T02:03:44.813Z,9.90
2023-04-20T02:04:44.592Z,9.70
2023-04-20T02:05:44.549Z,9.60
2023-04-20T02:06:44.555Z,8.80
2023-04-20T02:07:44.570Z,8.90
2023-04-20T02:08:44.510Z,9.60
2023-04-20T02:09:44.508Z,10.40
2023-04-20T02:10:44.527Z,8.80
2023-04-20T02:11:44.552Z,9.30
2023-04-20T02:12:44.485Z,8.70
2023-04-20T02:13:44.550Z,10.20
2023-04-20T02:14:44.473Z,9.00
2023-04-20T02:15:44.500Z,9.40
2023-04-20T02:16:44.545Z,9.40
2023-04-20T02:17:44.462Z,9.00
2023-04-20T02:18:44.469Z,9.30
2023-04-20T02:19:44.467Z,9.10
2023-04-20T02:20:44.423Z,9.00
2023-04-20T02:21:44.462Z,9.40
2023-04-20T02:22:44.441Z,9.80
2023-04-20T02:23:44.707Z,9.60
2023-04-20T02:24:44.434Z,8.70
2023-04-20T02:25:44.427Z,9.10
2023-04-20T02:26:44.418Z,9.00
2023-04-20T02:27:44.408Z,9.50
2023-04-20T02:28:44.422Z,9.60
2023-04-20T02:29:45.006Z,10.10
2023-04-20T02:30:44.403Z,9.00
2023-04-20T02:31:44.436Z,10.40
2023-04-20T02:32:44.452Z,10.80
2023-04-20T02:33:44.367Z,9.70
2023-04-20T02:34:44.369Z,10.20
2023-04-20T02:35:44.384Z,9.20
2023-04-20T02:36:44.373Z,9.40
2023-04-20T02:37:44.339Z,10.10
2023-04-20T02:40:53.367Z,9.40
2023-04-20T02:44:05.576Z,8.00
2023-04-20T02:47:19.870Z,7.30
2023-04-20T02:51:00.741Z,7.30
2023-04-20T02:54:22.617Z,6.30
2023-04-20T03:01:21.925Z,6.50
2023-04-20T03:02:23.301Z,7.10
2023-04-20T03:03:23.184Z,6.90
2023-04-20T03:04:23.086Z,5.70
2023-04-20T03:05:23.016Z,5.80
2023-04-20T03:06:22.972Z,6.40
2023-04-20T03:07:22.975Z,5.90
2023-04-20T03:08:22.911Z,6.10
2023-04-20T03:09:22.930Z,5.90
2023-04-20T03:10:22.893Z,5.50
2023-04-20T03:11:22.944Z,7.00
2023-04-20T03:12:22.912Z,6.00
2023-04-20T03:13:22.891Z,5.70
2023-04-20T03:14:22.866Z,5.80
2023-04-20T03:15:22.872Z,5.70
2023-04-20T03:16:22.889Z,5.60
2023-04-20T03:17:23.064Z,5.40
2023-04-20T03:18:22.872Z,5.60
2023-04-20T03:19:22.847Z,5.70
2023-04-20T03:20:22.863Z,5.70
2023-04-20T03:21:23.702Z,5.50
2023-04-20T03:22:22.851Z,5.70
2023-04-20T03:23:22.832Z,5.30
2023-04-20T03:24:22.805Z,5.50
2023-04-20T03:25:22.790Z,6.70
2023-04-20T03:26:22.800Z,6.20
2023-04-20T03:27:22.800Z,6.10
2023-04-20T03:28:22.837Z,6.50
2023-04-20T03:29:22.816Z,5.90
2023-04-20T03:30:22.760Z,6.40
2023-04-20T03:31:22.770Z,6.90
2023-04-20T03:32:22.824Z,6.30
2023-04-20T03:33:22.758Z,6.80
2023-04-20T03:34:22.779Z,6.50
2023-04-20T03:35:22.768Z,8.30
2023-04-20T03:36:22.761Z,7.50
2023-04-20T03:37:22.750Z,6.70
2023-04-20T03:38:22.792Z,6.60
2023-04-20T03:39:22.701Z,7.30
2023-04-20T03:40:22.734Z,7.80
2023-04-20T03:41:22.700Z,7.60
2023-04-20T03:42:22.708Z,7.90
2023-04-20T03:43:22.729Z,7.70
2023-04-20T03:44:22.704Z,7.40
2023-04-20T03:45:22.689Z,7.60
2023-04-20T03:46:23.485Z,8.50
2023-04-20T03:47:23.716Z,7.90
2023-04-20T03:48:22.706Z,7.90
2023-04-20T03:49:22.694Z,8.50
2023-04-20T03:50:22.674Z,7.30
2023-04-20T03:51:22.677Z,7.10
2023-04-20T03:52:22.684Z,6.80
2023-04-20T03:53:22.637Z,8.00
2023-04-20T03:54:22.635Z,8.10
2023-04-20T03:55:22.653Z,6.80
2023-04-20T03:56:22.610Z,7.40
2023-04-20T03:57:22.675Z,7.20
2023-04-20T03:58:22.637Z,9.80
2023-04-20T03:59:22.606Z,10.30
2023-04-20T04:00:22.702Z,10.20
2023-04-20T04:01:22.614Z,8.10
2023-04-20T04:02:22.921Z,8.50
2023-04-20T04:03:22.840Z,8.70
2023-04-20T04:04:22.885Z,7.70
2023-04-20T04:05:22.797Z,8.30
2023-04-20T04:06:22.551Z,7.30
2023-04-20T04:07:22.589Z,6.90
2023-04-20T04:08:22.560Z,5.90
2023-04-20T04:09:22.617Z,5.30
2023-04-20T04:10:22.521Z,5.40
2023-04-20T04:11:22.586Z,6.00
2023-04-20T04:12:22.533Z,4.80
2023-04-20T04:13:22.523Z,4.60
2023-04-20T04:14:22.500Z,5.30
2023-04-20T04:15:22.570Z,5.70
2023-04-20T04:16:22.508Z,4.50
2023-04-20T04:17:22.536Z,9.80
2023-04-20T04:18:22.515Z,4.00
2023-04-20T04:19:22.470Z,4.10
2023-04-20T04:20:22.460Z,3.30
2023-04-20T04:21:22.467Z,2.80
2023-04-20T04:22:22.496Z,2.80
2023-04-20T04:23:22.489Z,2.80
2023-04-20T04:24:22.462Z,2.70
2023-04-20T04:25:22.420Z,3.00
2023-04-20T04:26:23.048Z,3.20
2023-04-20T04:27:22.428Z,2.70
2023-04-20T04:28:22.384Z,2.70
2023-04-20T04:29:22.450Z,3.20
2023-04-20T04:30:22.435Z,3.00
2023-04-20T04:31:22.425Z,3.30
2023-04-20T04:32:22.392Z,3.10
2023-04-20T04:33:22.374Z,4.10
2023-04-20T04:34:22.347Z,4.70
2023-04-20T04:35:22.660Z,3.40
2023-04-20T04:36:22.336Z,3.00
2023-04-20T04:37:22.371Z,2.80
2023-04-20T04:38:22.390Z,3.20
2023-04-20T04:39:22.377Z,2.90
2023-04-20T04:40:22.374Z,3.10
2023-04-20T04:41:22.354Z,2.80
2023-04-20T04:42:22.336Z,3.10
2023-04-20T04:43:22.305Z,3.60
2023-04-20T04:44:22.311Z,3.40
2023-04-20T04:45:22.328Z,3.70
2023-04-20T04:46:22.321Z,4.10
2023-04-20T04:47:22.482Z,4.20
2023-04-20T04:48:22.320Z,3.80
2023-04-20T04:49:22.267Z,4.20
2023-04-20T04:50:22.283Z,3.20
2023-04-20T04:51:22.292Z,3.80
2023-04-20T04:52:22.302Z,4.10
2023-04-20T04:53:22.241Z,4.20
2023-04-20T04:54:22.256Z,3.80
2023-04-20T04:55:22.257Z,3.90
2023-04-20T04:56:22.219Z,3.60
2023-04-20T04:57:22.244Z,4.10
2023-04-20T04:58:22.213Z,4.00
2023-04-20T04:59:22.245Z,3.90
2023-04-20T05:00:22.248Z,4.30
2023-04-20T05:01:22.302Z,4.40
2023-04-20T05:02:22.424Z,5.60
2023-04-20T05:03:22.374Z,4.00
2023-04-20T05:04:22.270Z,4.10
2023-04-20T05:05:22.217Z,4.60
2023-04-20T05:06:22.191Z,4.70
2023-04-20T05:07:22.194Z,4.40
2023-04-20T05:08:22.161Z,15.00
2023-04-20T05:09:22.165Z,5.10
2023-04-20T05:10:22.198Z,4.20
2023-04-20T05:11:22.135Z,4.10
2023-04-20T05:12:22.215Z,4.10
2023-04-20T05:13:22.177Z,4.20
2023-04-20T05:14:22.154Z,4.90
2023-04-20T05:15:22.145Z,4.10
2023-04-20T05:16:22.160Z,4.10
2023-04-20T05:17:25.238Z,4.30
2023-04-20T05:18:22.130Z,4.70
2023-04-20T05:19:22.107Z,4.70
2023-04-20T05:20:22.116Z,4.20
2023-04-20T05:21:22.152Z,4.60
2023-04-20T05:22:22.076Z,4.70
2023-04-20T05:23:22.072Z,4.90
2023-04-20T05:24:22.070Z,5.10
2023-04-20T05:25:22.121Z,4.90
2023-04-20T05:26:22.060Z,5.50
2023-04-20T05:27:22.053Z,5.20
2023-04-20T05:28:22.054Z,5.00
2023-04-20T05:29:22.089Z,5.40
2023-04-20T05:30:22.307Z,5.50
2023-04-20T05:31:22.054Z,4.80
2023-04-20T05:32:22.097Z,5.30
2023-04-20T05:33:22.066Z,4.40
2023-04-20T05:34:22.027Z,4.80
2023-04-20T05:35:22.011Z,5.40
2023-04-20T05:36:22.024Z,4.50
2023-04-20T05:37:21.973Z,4.70
2023-04-20T05:38:21.950Z,4.70
2023-04-20T05:39:21.971Z,4.30
2023-04-20T05:40:21.965Z,4.60
2023-04-20T05:41:21.994Z,4.80
2023-04-20T05:42:21.978Z,4.30
2023-04-20T05:43:21.966Z,4.00
2023-04-20T05:44:21.925Z,4.00
2023-04-20T05:45:21.969Z,4.50
2023-04-20T05:46:21.969Z,4.30
2023-04-20T05:47:21.936Z,4.60
2023-04-20T05:48:21.911Z,4.10
2023-04-20T05:49:21.914Z,3.80
2023-04-20T05:50:21.937Z,3.60
2023-04-20T05:51:21.931Z,3.60
2023-04-20T05:52:21.905Z,3.50
2023-04-20T05:53:21.885Z,3.10
2023-04-20T05:54:21.878Z,3.70
2023-04-20T05:55:22.834Z,4.20
2023-04-20T05:56:22.883Z,3.80
2023-04-20T05:57:21.892Z,3.80
2023-04-20T05:58:21.898Z,4.10
2023-04-20T05:59:22.619Z,3.60
2023-04-20T06:00:24.445Z,8.30
2023-04-20T06:01:21.865Z,10.30
2023-04-20T06:02:22.005Z,10.20
2023-04-20T06:03:22.090Z,6.60
2023-04-20T06:04:22.059Z,3.90
2023-04-20T06:05:21.949Z,4.20
2023-04-20T06:06:21.807Z,3.80
2023-04-20T06:07:21.833Z,4.30
2023-04-20T06:08:21.828Z,3.80
2023-04-20T06:09:21.800Z,4.60
2023-04-20T06:10:21.802Z,4.00
2023-04-20T06:11:21.840Z,4.30
2023-04-20T06:12:21.775Z,3.90
2023-04-20T06:13:21.786Z,3.70
2023-04-20T06:14:22.595Z,3.80
2023-04-20T06:15:21.790Z,4.80
2023-04-20T06:16:21.801Z,4.60
2023-04-20T06:17:21.758Z,5.30
2023-04-20T06:18:21.721Z,4.50
2023-04-20T06:19:21.810Z,4.00
2023-04-20T06:20:21.733Z,3.80
2023-04-20T06:21:21.732Z,3.70
2023-04-20T06:22:21.720Z,4.10
2023-04-20T06:23:21.723Z,3.50
2023-04-20T06:24:21.824Z,4.00
2023-04-20T06:25:21.719Z,3.80
2023-04-20T06:26:21.744Z,3.80
2023-04-20T06:27:21.701Z,3.20
2023-04-20T06:28:21.692Z,3.50
2023-04-20T06:29:21.681Z,3.50
2023-04-20T06:30:21.684Z,3.50
2023-04-20T06:31:21.698Z,3.90
2023-04-20T06:32:21.719Z,3.60
2023-04-20T06:33:21.647Z,3.60
2023-04-20T06:34:21.639Z,4.60
2023-04-20T06:35:21.741Z,3.60
2023-04-20T06:36:21.623Z,4.00
2023-04-20T06:37:21.630Z,5.00
2023-04-20T06:38:21.649Z,5.00
2023-04-20T06:39:21.660Z,5.00
2023-04-20T06:40:21.618Z,10.50
2023-04-20T06:41:21.599Z,10.20
2023-04-20T06:42:21.634Z,10.10
2023-04-20T06:43:21.594Z,5.90
2023-04-20T06:44:21.560Z,5.80
2023-04-20T06:45:21.576Z,5.10
2023-04-20T06:46:21.611Z,4.80
2023-04-20T06:47:21.630Z,4.60
2023-04-20T06:48:31.367Z,4.50
2023-04-20T06:49:23.558Z,4.90
2023-04-20T06:50:21.562Z,6.10
2023-04-20T06:51:21.559Z,5.80
2023-04-20T06:52:21.597Z,6.40
2023-04-20T06:53:21.597Z,5.70
2023-04-20T06:54:21.528Z,6.40
2023-04-20T06:55:21.514Z,5.80
2023-04-20T06:56:21.572Z,5.70
2023-04-20T06:57:21.566Z,6.20
2023-04-20T06:58:21.550Z,5.90
2023-04-20T06:59:21.488Z,5.70
2023-04-20T07:00:21.504Z,6.00
2023-04-20T07:01:21.537Z,6.00
2023-04-20T07:02:21.602Z,6.30
2023-04-20T07:03:21.643Z,9.80
2023-04-20T07:04:21.575Z,12.90
2023-04-20T07:05:21.467Z,9.30
2023-04-20T07:06:21.503Z,7.30
2023-04-20T07:07:21.459Z,6.30
2023-04-20T07:08:21.455Z,5.90
2023-04-20T07:09:21.475Z,6.00
2023-04-20T07:10:21.448Z,6.90
2023-04-20T07:11:21.506Z,5.80
2023-04-20T07:12:21.437Z,5.80
2023-04-20T07:13:21.412Z,6.70
2023-04-20T07:14:21.400Z,6.00
2023-04-20T07:15:22.159Z,6.50
2023-04-20T07:16:21.395Z,6.00
2023-04-20T07:17:21.398Z,6.60
2023-04-20T07:18:21.367Z,6.50
2023-04-20T07:19:21.369Z,6.20
2023-04-20T07:20:21.400Z,5.70
2023-04-20T07:21:21.409Z,6.20
2023-04-20T07:22:21.355Z,5.60
2023-04-20T07:23:22.108Z,5.60
2023-04-20T07:24:21.418Z,5.60
2023-04-20T07:25:21.437Z,5.80
2023-04-20T07:26:21.343Z,5.70
2023-04-20T07:27:58.384Z,6.00
2023-04-20T07:28:21.386Z,5.70
2023-04-20T07:29:57.107Z,5.60
2023-04-20T07:30:56.364Z,5.80
2023-04-20T07:31:53.839Z,6.30
2023-04-20T07:32:55.180Z,6.10
2023-04-20T07:33:53.763Z,6.10
2023-04-20T07:36:22.698Z,5.90
2023-04-20T07:37:59.748Z,6.30
2023-04-20T07:38:23.745Z,6.10
2023-04-20T07:39:23.720Z,6.50
2023-04-20T07:40:23.695Z,6.30
2023-04-20T07:41:59.747Z,6.70
2023-04-20T07:42:23.863Z,5.50
2023-04-20T07:43:23.830Z,5.90
2023-04-20T07:44:23.686Z,6.90
2023-04-20T07:45:23.793Z,6.90
2023-04-20T07:46:23.934Z,8.00
2023-04-20T07:47:23.869Z,6.80
2023-04-20T07:48:24.262Z,6.50
2023-04-20T07:49:24.959Z,5.90
2023-04-20T07:50:23.649Z,5.80
2023-04-20T07:51:23.583Z,7.00
2023-04-20T07:52:23.647Z,7.60
2023-04-20T07:53:23.753Z,6.20
2023-04-20T07:54:23.545Z,5.90
2023-04-20T07:55:23.575Z,5.80
2023-04-20T07:56:23.711Z,5.80
2023-04-20T07:57:23.698Z,6.40
2023-04-20T07:58:23.584Z,7.80
2023-04-20T07:59:23.551Z,6.30
2023-04-20T08:00:23.638Z,6.00
2023-04-20T08:01:23.555Z,6.30
2023-04-20T08:02:23.741Z,6.10
2023-04-20T08:03:23.623Z,7.80
2023-04-20T08:04:23.925Z,17.20
2023-04-20T08:05:23.794Z,10.60
2023-04-20T08:06:23.728Z,7.10
2023-04-20T08:07:23.529Z,6.90
2023-04-20T08:08:23.452Z,6.60
2023-04-20T08:09:23.517Z,7.00
2023-04-20T08:10:23.570Z,6.60
2023-04-20T08:11:23.484Z,6.60
2023-04-20T08:12:23.521Z,7.30
2023-04-20T08:13:23.517Z,6.90
2023-04-20T08:14:23.471Z,6.70
2023-04-20T08:15:23.427Z,7.30
2023-04-20T08:16:24.085Z,7.40
2023-04-20T08:17:23.457Z,6.80
2023-04-20T08:18:24.269Z,7.90
2023-04-20T08:19:23.492Z,7.20
2023-04-20T08:20:23.373Z,8.20
2023-04-20T08:21:25.414Z,8.20
2023-04-20T08:22:24.365Z,8.10
2023-04-20T08:23:23.433Z,8.10
2023-04-20T08:24:23.362Z,8.60
2023-04-20T08:25:25.250Z,8.70
2023-04-20T08:26:23.389Z,9.20
2023-04-20T08:27:23.457Z,9.20
2023-04-20T08:28:33.318Z,9.90
2023-04-20T08:29:25.413Z,10.20
2023-04-20T08:30:23.403Z,10.60
2023-04-20T08:31:23.773Z,10.20
2023-04-20T08:32:23.336Z,11.20
2023-04-20T08:33:23.292Z,10.50
2023-04-20T08:34:23.301Z,10.80
2023-04-20T08:35:23.415Z,11.20
2023-04-20T08:36:23.347Z,12.10
2023-04-20T08:37:23.323Z,11.70
2023-04-20T08:38:32.931Z,12.20
2023-04-20T08:39:25.311Z,12.20
2023-04-20T08:40:23.299Z,11.60
2023-04-20T08:41:23.349Z,13.00
2023-04-20T08:42:23.276Z,12.90
2023-04-20T08:43:23.275Z,13.40
2023-04-20T08:44:23.480Z,13.30
2023-04-20T08:45:23.468Z,12.90
2023-04-20T08:46:23.330Z,11.90
2023-04-20T08:47:23.246Z,13.10
2023-04-20T08:48:23.217Z,12.90
2023-04-20T08:49:23.207Z,12.50
2023-04-20T08:50:23.500Z,12.40
2023-04-20T08:51:23.244Z,12.80
2023-04-20T08:52:23.200Z,13.10
2023-04-20T08:53:23.162Z,12.70
2023-04-20T08:54:24.739Z,13.90
2023-04-20T08:55:24.257Z,13.40
2023-04-20T08:56:23.951Z,14.80
2023-04-20T08:57:23.992Z,14.30
2023-04-20T08:58:23.450Z,17.90
2023-04-20T08:59:23.415Z,14.10
2023-04-20T09:00:23.498Z,19.10
2023-04-20T09:01:34.312Z,13.90
2023-04-20T09:02:25.136Z,13.40
2023-04-20T09:03:58.488Z,14.10
2023-04-20T09:04:23.519Z,13.80
2023-04-20T09:05:23.322Z,14.40
2023-04-20T09:06:23.467Z,13.40
2023-04-20T09:07:24.134Z,12.90
2023-04-20T09:08:23.112Z,13.40
2023-04-20T09:09:23.306Z,13.40
2023-04-20T09:10:23.874Z,13.30
2023-04-20T09:11:23.185Z,13.40
2023-04-20T09:12:23.114Z,13.50
2023-04-20T09:13:23.059Z,14.00
2023-04-20T09:14:23.093Z,13.70
2023-04-20T09:15:23.208Z,13.80
2023-04-20T09:16:23.819Z,14.10
2023-04-20T09:17:23.117Z,13.80
2023-04-20T09:18:23.076Z,14.90
2023-04-20T09:19:23.046Z,13.80
2023-04-20T09:20:23.053Z,14.00
2023-04-20T09:21:23.018Z,13.70
2023-04-20T09:22:23.048Z,13.50
2023-04-20T09:23:23.043Z,13.70
2023-04-20T09:24:23.018Z,15.20
2023-04-20T09:25:22.976Z,14.00
2023-04-20T09:26:23.044Z,13.50
2023-04-20T09:27:22.958Z,14.90
2023-04-20T09:28:22.996Z,13.70
2023-04-20T09:29:22.967Z,15.20
2023-04-20T09:30:22.986Z,13.90
2023-04-20T09:31:23.001Z,14.60
2023-04-20T09:32:23.103Z,13.50
2023-04-20T09:33:23.558Z,13.90
2023-04-20T09:34:22.987Z,14.50
2023-04-20T09:35:22.924Z,14.00
2023-04-20T09:36:22.976Z,13.40
2023-04-20T09:37:22.935Z,14.00
2023-04-20T09:38:22.922Z,14.00
2023-04-20T09:39:22.925Z,12.50
2023-04-20T09:40:22.940Z,12.80
2023-04-20T09:41:22.907Z,12.90
2023-04-20T09:42:22.923Z,14.70
2023-04-20T09:43:22.919Z,14.50
2023-04-20T09:44:22.903Z,13.60
2023-04-20T09:45:22.915Z,14.20
2023-04-20T09:46:22.993Z,12.70
2023-04-20T09:47:22.940Z,12.20
2023-04-20T09:48:22.853Z,12.80
2023-04-20T09:49:22.926Z,13.10
2023-04-20T09:50:29.183Z,12.90
2023-04-20T09:51:25.020Z,13.10
2023-04-20T09:52:22.872Z,11.90
2023-04-20T09:53:22.909Z,12.40
2023-04-20T09:54:22.858Z,12.40
2023-04-20T09:55:22.851Z,10.90
2023-04-20T09:56:22.821Z,10.90
2023-04-20T09:57:22.785Z,11.60
2023-04-20T09:58:22.998Z,10.30
2023-04-20T09:59:22.811Z,10.90
2023-04-20T10:00:22.788Z,9.80
2023-04-20T10:01:22.834Z,10.20
2023-04-20T10:02:22.932Z,10.30
2023-04-20T10:03:22.879Z,10.20
2023-04-20T10:04:24.230Z,10.20
2023-04-20T10:05:22.795Z,9.80
2023-04-20T10:06:22.817Z,10.30
2023-04-20T10:07:22.823Z,10.20
2023-04-20T10:08:22.746Z,9.00
2023-04-20T10:09:22.773Z,9.60
2023-04-20T10:10:22.727Z,9.80
2023-04-20T10:11:22.773Z,9.70
2023-04-20T10:12:22.840Z,9.60
2023-04-20T10:13:22.854Z,9.60
2023-04-20T10:14:22.719Z,9.00
2023-04-20T10:15:22.686Z,10.10
2023-04-20T10:16:22.751Z,9.10
2023-04-20T10:17:22.845Z,8.80
2023-04-20T10:18:23.821Z,9.60
2023-04-20T10:19:22.985Z,8.30
2023-04-20T10:20:22.664Z,9.30
2023-04-20T10:21:22.812Z,9.30
2023-04-20T10:22:22.644Z,9.60
2023-04-20T10:23:22.686Z,9.50
2023-04-20T10:24:22.894Z,9.60
2023-04-20T10:25:22.632Z,9.00
2023-04-20T10:26:22.664Z,10.10
2023-04-20T10:27:22.610Z,9.30
2023-04-20T10:28:22.688Z,9.20
2023-04-20T10:29:22.671Z,8.50
2023-04-20T10:30:22.600Z,9.00
2023-04-20T10:31:22.682Z,8.90
2023-04-20T10:32:22.755Z,9.30
2023-04-20T10:33:22.616Z,9.00
2023-04-20T10:34:22.607Z,10.10
2023-04-20T10:35:22.585Z,8.90
2023-04-20T10:36:22.570Z,8.30
2023-04-20T10:37:22.714Z,8.30
2023-04-20T10:38:22.559Z,8.70
2023-04-20T10:39:22.869Z,8.50
2023-04-20T10:40:22.556Z,8.60
2023-04-20T10:41:22.555Z,8.50
2023-04-20T10:42:22.534Z,8.70
2023-04-20T10:43:22.676Z,8.80
2023-04-20T10:44:22.573Z,8.60
2023-04-20T10:45:22.504Z,9.30
2023-04-20T10:46:22.520Z,8.60
2023-04-20T10:47:22.547Z,8.10
2023-04-20T10:48:22.503Z,8.60
2023-04-20T10:49:22.536Z,8.20
2023-04-20T10:50:22.518Z,8.40
2023-04-20T10:51:22.500Z,9.30
2023-04-20T10:52:22.501Z,8.70
2023-04-20T10:53:22.525Z,8.70
2023-04-20T10:54:22.470Z,8.80
2023-04-20T10:55:22.439Z,8.70
2023-04-20T10:56:22.443Z,8.70
2023-04-20T10:57:22.441Z,8.30
2023-04-20T10:58:22.446Z,9.00
2023-04-20T10:59:22.426Z,8.50
2023-04-20T11:00:22.447Z,8.50
2023-04-20T11:01:22.445Z,8.70
2023-04-20T11:02:22.638Z,8.70
2023-04-20T11:03:24.312Z,8.50
2023-04-20T11:04:22.473Z,7.60
2023-04-20T11:05:22.675Z,8.00
2023-04-20T11:06:22.378Z,8.60
2023-04-20T11:07:22.376Z,8.80
2023-04-20T11:08:22.410Z,8.10
2023-04-20T11:09:22.463Z,8.20
2023-04-20T11:10:22.378Z,8.40
2023-04-20T11:11:23.415Z,8.90
2023-04-20T11:12:22.346Z,8.40
2023-04-20T11:13:22.377Z,8.00
2023-04-20T11:14:22.375Z,8.70
2023-04-20T11:15:22.339Z,8.10
2023-04-20T11:16:22.480Z,8.90
2023-04-20T11:17:22.364Z,8.50
2023-04-20T11:18:22.380Z,8.90
2023-04-20T11:19:22.295Z,8.50
2023-04-20T11:20:22.287Z,8.20
2023-04-20T11:21:22.305Z,7.80
2023-04-20T11:22:22.280Z,7.30
2023-04-20T11:23:22.303Z,7.10
2023-04-20T11:24:22.307Z,7.00
2023-04-20T11:25:22.365Z,7.10
2023-04-20T11:26:22.259Z,7.00
2023-04-20T11:27:22.267Z,7.40
2023-04-20T11:28:27.069Z,6.90
2023-04-20T11:29:22.910Z,7.20
2023-04-20T11:30:22.235Z,7.20
2023-04-20T11:31:22.274Z,7.50
2023-04-20T11:32:22.426Z,6.90
2023-04-20T11:33:22.370Z,6.60
2023-04-20T11:34:22.259Z,6.80
2023-04-20T11:35:22.187Z,6.80
2023-04-20T11:36:22.199Z,9.00
2023-04-20T11:37:22.245Z,6.60
2023-04-20T11:38:22.251Z,7.00
2023-04-20T11:39:22.223Z,7.10
2023-04-20T11:40:22.180Z,7.10
2023-04-20T11:41:22.262Z,6.90
2023-04-20T11:42:22.305Z,7.90
2023-04-20T11:43:22.178Z,7.50
2023-04-20T11:44:22.183Z,7.10
2023-04-20T11:45:23.260Z,7.00
2023-04-20T11:46:22.207Z,8.00
2023-04-20T11:47:22.169Z,7.20
2023-04-20T11:48:22.130Z,7.30
2023-04-20T11:49:22.178Z,7.20
2023-04-20T11:50:22.117Z,6.20
2023-04-20T11:51:22.094Z,6.40
2023-04-20T11:52:22.111Z,6.60
2023-04-20T11:53:22.093Z,6.90
2023-04-20T11:54:22.141Z,7.10
2023-04-20T11:55:22.122Z,6.90
2023-04-20T11:56:22.073Z,6.90
2023-04-20T11:57:22.085Z,6.80
2023-04-20T11:58:22.090Z,7.00
2023-04-20T11:59:22.075Z,7.00
2023-04-20T12:00:22.048Z,7.50
2023-04-20T12:01:22.044Z,7.30
2023-04-20T12:02:22.153Z,7.00
2023-04-20T12:03:22.378Z,7.00
2023-04-20T12:04:22.322Z,6.00
2023-04-20T12:05:22.111Z,6.50
2023-04-20T12:06:22.125Z,5.90
2023-04-20T12:07:22.820Z,6.10
2023-04-20T12:08:21.995Z,5.90
2023-04-20T12:09:22.042Z,5.90
2023-04-20T12:10:22.020Z,6.10
2023-04-20T12:11:21.998Z,6.10
2023-04-20T12:12:21.986Z,5.50
2023-04-20T12:13:21.967Z,5.70
2023-04-20T12:14:21.984Z,8.30
2023-04-20T12:15:21.966Z,8.20
2023-04-20T12:16:22.019Z,9.40
2023-04-20T12:17:21.996Z,6.40
2023-04-20T12:18:22.001Z,6.30
2023-04-20T12:19:21.949Z,6.20
2023-04-20T12:20:21.926Z,6.10
2023-04-20T12:21:21.971Z,6.50
2023-04-20T12:22:22.022Z,6.30
2023-04-20T12:23:21.938Z,5.70
2023-04-20T12:24:21.904Z,6.90
2023-04-20T12:25:21.934Z,6.00
2023-04-20T12:26:27.016Z,5.90
2023-04-20T12:27:49.992Z,5.60
2023-04-20T12:30:20.781Z,6.20
2023-04-20T12:31:54.216Z,5.50
2023-04-20T12:32:21.770Z,5.30
2023-04-20T12:33:55.148Z,5.10
2023-04-20T12:37:47.413Z,4.70
2023-04-20T12:38:48.567Z,5.10
2023-04-20T12:39:48.532Z,4.70
2023-04-20T12:40:48.538Z,5.10
2023-04-20T12:42:21.536Z,5.00
2023-04-20T12:42:48.491Z,5.80
2023-04-20T12:43:48.545Z,7.00
2023-04-20T12:44:48.504Z,5.70
2023-04-20T12:45:48.549Z,6.10
2023-04-20T12:46:48.564Z,5.60
2023-04-20T12:47:48.446Z,5.40
2023-04-20T12:48:48.478Z,5.50
2023-04-20T12:49:48.455Z,5.40
2023-04-20T12:50:48.445Z,5.40
2023-04-20T12:51:48.511Z,5.40
2023-04-20T12:52:48.420Z,5.10
2023-04-20T12:53:48.414Z,4.90
2023-04-20T12:54:48.486Z,4.90
2023-04-20T12:55:53.119Z,5.00
2023-04-20T12:56:49.431Z,5.30
2023-04-20T12:57:48.449Z,4.90
2023-04-20T12:58:48.389Z,5.50
2023-04-20T12:59:48.408Z,5.50
2023-04-20T13:00:48.418Z,5.00
2023-04-20T13:01:48.422Z,5.20
2023-04-20T13:02:48.466Z,5.00
2023-04-20T13:03:48.525Z,5.20
2023-04-20T13:04:48.367Z,5.30
2023-04-20T13:05:48.363Z,5.00
2023-04-20T13:06:48.372Z,5.00
2023-04-20T13:07:48.342Z,5.20
2023-04-20T13:08:48.328Z,5.80
2023-04-20T13:09:48.320Z,5.60
2023-04-20T13:10:48.294Z,5.50
2023-04-20T13:11:48.310Z,5.50
2023-04-20T13:12:48.279Z,5.50
2023-04-20T13:13:48.283Z,5.70
2023-04-20T13:14:48.278Z,5.50
2023-04-20T13:15:48.303Z,5.70
2023-04-20T13:16:48.407Z,5.10
2023-04-20T13:17:48.289Z,5.20
2023-04-20T13:18:48.290Z,5.30
2023-04-20T13:19:48.275Z,5.10
2023-04-20T13:20:48.261Z,5.20
2023-04-20T13:21:48.251Z,5.30
2023-04-20T13:22:57.517Z,5.10
2023-04-20T13:23:50.233Z,5.30
2023-04-20T13:24:48.256Z,5.90
2023-04-20T13:25:48.240Z,5.30
2023-04-20T13:26:48.254Z,5.60
2023-04-20T13:27:48.184Z,5.10
2023-04-20T13:28:48.203Z,5.70
2023-04-20T13:29:48.205Z,5.60
2023-04-20T13:30:48.164Z,5.40
2023-04-20T13:31:48.201Z,5.10
2023-04-20T13:32:48.211Z,5.50
2023-04-20T13:33:48.214Z,5.10
2023-04-20T13:34:48.147Z,5.90
2023-04-20T13:35:49.581Z,5.10
2023-04-20T13:36:48.146Z,5.90
2023-04-20T13:37:48.136Z,5.30
2023-04-20T13:38:48.348Z,5.20
2023-04-20T13:39:49.103Z,5.30